Time;durP1;ratioP1;P1;durP2;ratioP2;P2;SDS_P1;SDS_P2;PMS_P1;PMS_P2;Temp;Humidity;BMP_temperature;BMP_pressure;BME280_temperature;BME280_humidity;BME280_pressure;Samples;Min_cycle;Max_cycle;Signal;HPM_P1;HPM_P2
2022/06/01 00:01:22;;;;;;;19.53;12.67;;;;;;;;;;4837335;29;20267;-68
2022/06/01 00:03:50;;;;;;;19.97;11.30;;;;;;;;;;4839595;29;20218;-68
2022/06/01 00:06:17;;;;;;;17.23;10.17;;;;;;;;;;4838995;29;20668;-68
2022/06/01 00:08:43;;;;;;;14.27;9.83;;;;;;;;;;4839437;29;20210;-68
2022/06/01 00:11:10;;;;;;;15.60;9.97;;;;;;;;;;4836247;29;20230;-67
2022/06/01 00:13:37;;;;;;;13.40;9.70;;;;;;;;;;4821912;29;20666;-68
2022/06/01 00:16:04;;;;;;;17.07;11.03;;;;;;;;;;4833442;29;20202;-69
2022/06/01 00:18:30;;;;;;;17.37;12.00;;;;;;;;;;4839102;29;20297;-68
2022/06/01 00:20:57;;;;;;;15.73;10.87;;;;;;;;;;4838635;29;20267;-68
2022/06/01 00:23:23;;;;;;;12.43;9.47;;;;;;;;;;4838590;29;20662;-68
2022/06/01 00:25:50;;;;;;;14.33;9.13;;;;;;;;;;4838830;29;20225;-68
2022/06/01 00:28:17;;;;;;;13.80;8.80;;;;;;;;;;4838688;29;20255;-68
2022/06/01 00:30:43;;;;;;;13.10;8.23;;;;;;;;;;4827308;29;20652;-68
2022/06/01 00:33:10;;;;;;;13.27;8.20;;;;;;;;;;4831103;29;20863;-67
2022/06/01 00:35:37;;;;;;;12.53;8.47;;;;;;;;;;4837677;29;20186;-67
2022/06/01 00:38:04;;;;;;;13.53;8.33;;;;;;;;;;4821917;29;20210;-68
2022/06/01 00:40:37;;;;;;;12.57;8.50;;;;;;;;;;4837309;29;20568;-68
2022/06/01 00:43:16;;;;;;;10.77;7.40;;;;;;;;;;4838593;29;20202;-68
2022/06/01 00:45:42;;;;;;;13.77;8.73;;;;;;;;;;4837121;29;20218;-67
2022/06/01 00:48:09;;;;;;;13.80;8.60;;;;;;;;;;4833533;29;20203;-68
2022/06/01 00:50:36;;;;;;;16.57;8.67;;;;;;;;;;4837309;29;20186;-67
2022/06/01 00:53:05;;;;;;;12.73;8.37;;;;;;;;;;4837958;29;20206;-68
2022/06/01 00:55:35;;;;;;;11.63;8.47;;;;;;;;;;4838238;29;20214;-68
2022/06/01 00:58:06;;;;;;;12.03;8.40;;;;;;;;;;4837006;29;20247;-67
2022/06/01 01:00:33;;;;;;;13.50;9.20;;;;;;;;;;4836979;29;20202;-68
2022/06/01 01:03:00;;;;;;;14.67;9.40;;;;;;;;;;4831579;29;20309;-68
2022/06/01 01:05:27;;;;;;;13.10;9.37;;;;;;;;;;4820182;29;20292;-67
2022/06/01 01:07:54;;;;;;;16.17;9.93;;;;;;;;;;4822433;29;20219;-68
2022/06/01 01:10:20;;;;;;;14.60;9.33;;;;;;;;;;4819982;29;20999;-68
2022/06/01 01:12:56;;;;;;;14.50;9.33;;;;;;;;;;4819997;29;20885;-68
2022/06/01 01:15:27;;;;;;;14.50;8.40;;;;;;;;;;4817126;29;20361;-68
2022/06/01 01:17:54;;;;;;;12.40;9.00;;;;;;;;;;4818430;29;20205;-67
2022/06/01 01:20:20;;;;;;;12.07;8.97;;;;;;;;;;4818135;29;20214;-68
2022/06/01 01:22:58;;;;;;;13.23;8.57;;;;;;;;;;4815200;29;20575;-68
2022/06/01 01:25:25;;;;;;;15.47;9.23;;;;;;;;;;4819145;29;20552;-68
2022/06/01 01:27:53;;;;;;;13.20;8.47;;;;;;;;;;4819949;29;20218;-68
2022/06/01 01:30:23;;;;;;;16.07;8.57;;;;;;;;;;4814979;29;20883;-68
2022/06/01 01:32:50;;;;;;;14.03;9.47;;;;;;;;;;4819782;29;20199;-68
2022/06/01 01:35:16;;;;;;;13.57;8.53;;;;;;;;;;4819593;29;20211;-68
2022/06/01 01:37:43;;;;;;;12.47;7.77;;;;;;;;;;4814173;29;20226;-68
2022/06/01 01:40:09;;;;;;;11.63;7.67;;;;;;;;;;4823701;29;20245;-68
2022/06/01 01:42:36;;;;;;;11.50;7.37;;;;;;;;;;4856369;29;20208;-67
2022/06/01 01:45:23;;;;;;;11.43;7.33;;;;;;;;;;4855548;29;20776;-67
2022/06/01 01:47:51;;;;;;;10.73;7.13;;;;;;;;;;4855997;29;20208;-67
2022/06/01 01:50:18;;;;;;;10.33;7.60;;;;;;;;;;4856086;29;20225;-67
2022/06/01 01:52:45;;;;;;;9.27;7.67;;;;;;;;;;4855701;29;20650;-68
2022/06/01 01:55:14;;;;;;;11.50;7.33;;;;;;;;;;4854937;29;20189;-67
2022/06/01 01:57:47;;;;;;;11.53;7.70;;;;;;;;;;4839443;29;20213;-67
2022/06/01 02:00:15;;;;;;;11.87;7.23;;;;;;;;;;4871561;29;20207;-67
2022/06/01 02:02:54;;;;;;;11.50;7.50;;;;;;;;;;4856566;29;20849;-68
2022/06/01 02:08:29;;;;;;;12.13;7.60;;;;;;;;;;4873326;29;20205;-67
2022/06/01 02:13:56;;;;;;;11.27;8.00;;;;;;;;;;4828744;29;20612;-69
2022/06/01 02:16:24;;;;;;;12.07;7.53;;;;;;;;;;4839031;29;20277;-69
2022/06/01 02:18:52;;;;;;;12.77;8.03;;;;;;;;;;4836304;29;20201;-68
2022/06/01 02:21:20;;;;;;;11.73;7.47;;;;;;;;;;4848678;29;20257;-68
2022/06/01 02:23:47;;;;;;;12.67;7.40;;;;;;;;;;4824465;29;20204;-69
2022/06/01 02:26:15;;;;;;;10.67;7.37;;;;;;;;;;4849838;29;20542;-69
2022/06/01 02:28:42;;;;;;;11.17;6.50;;;;;;;;;;4840039;29;20202;-68
2022/06/01 02:31:08;;;;;;;11.77;7.27;;;;;;;;;;4842832;29;20635;-68
2022/06/01 02:33:35;;;;;;;9.43;6.77;;;;;;;;;;4862324;29;20759;-69
2022/06/01 02:36:03;;;;;;;6.37;5.70;;;;;;;;;;4860596;29;20204;-69
2022/06/01 02:38:32;;;;;;;9.23;6.27;;;;;;;;;;4877308;29;20460;-68
2022/06/01 02:41:00;;;;;;;12.53;7.23;;;;;;;;;;4871059;29;20237;-69
2022/06/01 02:43:26;;;;;;;10.93;7.27;;;;;;;;;;4868285;29;20202;-70
2022/06/01 02:45:53;;;;;;;10.63;7.20;;;;;;;;;;4859178;29;20277;-70
2022/06/01 02:48:20;;;;;;;12.07;7.80;;;;;;;;;;4858630;29;20939;-69
2022/06/01 02:50:46;;;;;;;12.23;7.93;;;;;;;;;;4858927;29;20250;-69
2022/06/01 02:53:13;;;;;;;9.80;6.97;;;;;;;;;;4842253;29;20265;-69
2022/06/01 02:55:39;;;;;;;9.97;7.63;;;;;;;;;;4858361;29;20198;-68
2022/06/01 02:58:06;;;;;;;10.53;7.63;;;;;;;;;;4859037;29;20216;-69
2022/06/01 03:00:37;;;;;;;12.30;7.93;;;;;;;;;;4863635;29;20185;-69
2022/06/01 03:03:04;;;;;;;10.80;7.77;;;;;;;;;;4858429;29;20225;-68
2022/06/01 03:05:32;;;;;;;12.83;8.23;;;;;;;;;;4841962;29;20221;-70
2022/06/01 03:07:58;;;;;;;14.07;9.00;;;;;;;;;;4844691;29;20205;-69
2022/06/01 03:10:26;;;;;;;12.27;9.37;;;;;;;;;;4857977;29;20224;-68
2022/06/01 03:12:53;;;;;;;13.80;8.40;;;;;;;;;;4862021;29;20198;-68
2022/06/01 03:15:20;;;;;;;15.63;9.07;;;;;;;;;;4861462;29;20201;-68
2022/06/01 03:17:47;;;;;;;14.30;8.40;;;;;;;;;;4857907;29;20197;-67
2022/06/01 03:20:15;;;;;;;12.27;7.93;;;;;;;;;;4838079;29;20546;-70
2022/06/01 03:22:41;;;;;;;10.73;8.43;;;;;;;;;;4859291;29;20224;-68
2022/06/01 03:25:09;;;;;;;11.27;7.97;;;;;;;;;;4839145;29;20633;-68
2022/06/01 03:27:38;;;;;;;13.80;8.37;;;;;;;;;;4858592;29;20200;-69
2022/06/01 03:30:06;;;;;;;13.27;8.80;;;;;;;;;;4858762;29;20224;-69
2022/06/01 03:32:33;;;;;;;13.37;9.87;;;;;;;;;;4855347;29;20231;-67
2022/06/01 03:34:59;;;;;;;11.47;8.57;;;;;;;;;;4857319;29;20205;-68
2022/06/01 03:37:27;;;;;;;11.80;8.60;;;;;;;;;;4854538;29;20194;-67
2022/06/01 03:39:54;;;;;;;10.83;8.83;;;;;;;;;;4852905;29;20281;-69
2022/06/01 03:42:21;;;;;;;12.07;9.00;;;;;;;;;;4854932;29;21143;-68
2022/06/01 03:47:33;;;;;;;11.50;7.83;;;;;;;;;;4858699;29;20256;-68
2022/06/01 03:50:00;;;;;;;13.87;9.83;;;;;;;;;;4862627;29;21005;-68
2022/06/01 03:52:27;;;;;;;14.33;10.37;;;;;;;;;;4864447;29;20201;-68
2022/06/01 03:54:53;;;;;;;13.13;8.70;;;;;;;;;;4862024;29;20249;-67
2022/06/01 03:57:20;;;;;;;12.83;8.20;;;;;;;;;;4859866;29;20203;-68
2022/06/01 03:59:48;;;;;;;15.27;9.33;;;;;;;;;;4860587;29;20205;-68
2022/06/01 04:02:14;;;;;;;12.63;9.87;;;;;;;;;;4860161;29;20303;-68
2022/06/01 04:04:41;;;;;;;13.53;9.60;;;;;;;;;;4855514;29;20221;-68
2022/06/01 04:07:07;;;;;;;14.00;9.70;;;;;;;;;;4858928;29;20570;-70
2022/06/01 04:09:34;;;;;;;15.93;10.37;;;;;;;;;;4850441;29;20940;-69
2022/06/01 04:12:00;;;;;;;12.97;9.67;;;;;;;;;;4854595;29;20213;-69
2022/06/01 04:14:27;;;;;;;15.43;10.87;;;;;;;;;;4857531;29;20210;-68
2022/06/01 04:16:54;;;;;;;14.37;10.07;;;;;;;;;;4861161;29;20198;-68
2022/06/01 04:19:20;;;;;;;11.80;9.17;;;;;;;;;;4842613;29;20675;-70
2022/06/01 04:21:48;;;;;;;13.83;9.60;;;;;;;;;;4856936;29;20261;-70
2022/06/01 04:24:15;;;;;;;12.13;9.23;;;;;;;;;;4840913;29;20661;-69
2022/06/01 04:26:41;;;;;;;12.93;10.10;;;;;;;;;;4840265;29;20229;-70
2022/06/01 04:29:08;;;;;;;11.70;9.90;;;;;;;;;;4840248;29;20193;-69
2022/06/01 04:31:35;;;;;;;12.43;10.37;;;;;;;;;;4856790;29;20534;-69
2022/06/01 04:34:01;;;;;;;13.83;9.93;;;;;;;;;;4856552;29;20570;-69
2022/06/01 04:36:28;;;;;;;10.60;8.93;;;;;;;;;;4856946;29;20763;-69
2022/06/01 04:38:55;;;;;;;13.00;9.43;;;;;;;;;;4856580;29;20198;-70
2022/06/01 04:41:23;;;;;;;12.80;10.27;;;;;;;;;;4855060;29;20581;-70
2022/06/01 04:43:49;;;;;;;12.70;10.10;;;;;;;;;;4852976;29;20197;-69
2022/06/01 04:46:16;;;;;;;14.90;11.03;;;;;;;;;;4855936;29;20225;-70
2022/06/01 04:48:43;;;;;;;15.20;10.53;;;;;;;;;;4806823;29;20198;-69
2022/06/01 04:51:10;;;;;;;13.77;10.37;;;;;;;;;;4855852;29;20297;-69
2022/06/01 04:53:36;;;;;;;13.77;10.37;;;;;;;;;;4853863;29;20194;-69
2022/06/01 04:56:03;;;;;;;11.77;9.90;;;;;;;;;;4854447;29;20193;-69
2022/06/01 04:58:30;;;;;;;11.23;9.83;;;;;;;;;;4852955;29;20988;-70
2022/06/01 05:01:05;;;;;;;12.70;10.17;;;;;;;;;;4840700;29;20896;-70
2022/06/01 05:03:32;;;;;;;13.07;9.57;;;;;;;;;;4852025;29;20575;-70
2022/06/01 05:05:58;;;;;;;11.13;9.23;;;;;;;;;;4856788;29;21135;-68
2022/06/01 05:08:25;;;;;;;10.13;8.80;;;;;;;;;;4857944;29;20200;-68
2022/06/01 05:10:52;;;;;;;10.27;9.23;;;;;;;;;;4839861;29;20196;-68
2022/06/01 05:13:18;;;;;;;11.03;9.70;;;;;;;;;;4839535;29;21098;-68
2022/06/01 05:15:48;;;;;;;11.03;9.27;;;;;;;;;;4845816;29;20661;-68
2022/06/01 05:18:15;;;;;;;12.07;9.80;;;;;;;;;;4822975;29;20254;-68
2022/06/01 05:20:41;;;;;;;10.73;9.40;;;;;;;;;;4809593;29;20196;-69
2022/06/01 05:23:08;;;;;;;11.93;10.00;;;;;;;;;;4856047;29;20208;-68
2022/06/01 05:25:40;;;;;;;12.33;9.60;;;;;;;;;;4854780;29;20316;-69
2022/06/01 05:28:06;;;;;;;11.83;9.33;;;;;;;;;;4856114;29;20200;-68
2022/06/01 05:30:33;;;;;;;11.00;7.37;;;;;;;;;;4856375;29;20288;-68
2022/06/01 05:33:00;;;;;;;8.73;7.70;;;;;;;;;;4871059;29;20245;-69
2022/06/01 05:35:26;;;;;;;7.73;6.90;;;;;;;;;;4864064;29;20259;-68
2022/06/01 05:37:53;;;;;;;8.83;7.93;;;;;;;;;;4849704;29;20669;-69
2022/06/01 05:40:20;;;;;;;8.90;7.90;;;;;;;;;;4851310;29;20252;-69
2022/06/01 05:42:47;;;;;;;8.37;7.13;;;;;;;;;;4861058;29;20200;-69
2022/06/01 05:45:13;;;;;;;7.77;6.70;;;;;;;;;;4865404;29;20216;-68
2022/06/01 05:47:40;;;;;;;7.80;7.00;;;;;;;;;;4855109;29;20198;-69
2022/06/01 05:50:07;;;;;;;7.23;6.53;;;;;;;;;;4863366;29;20211;-69
2022/06/01 05:52:38;;;;;;;7.80;6.93;;;;;;;;;;4866969;29;20197;-69
2022/06/01 05:55:08;;;;;;;7.20;6.10;;;;;;;;;;4872274;29;20206;-69
2022/06/01 05:57:35;;;;;;;5.70;5.17;;;;;;;;;;4874168;29;20200;-69
2022/06/01 06:00:03;;;;;;;6.17;5.13;;;;;;;;;;4853658;29;20215;-70
2022/06/01 06:02:37;;;;;;;5.47;4.90;;;;;;;;;;4849675;29;20688;-69
2022/06/01 06:08:07;;;;;;;6.03;3.87;;;;;;;;;;4874258;29;20256;-69
2022/06/01 06:10:34;;;;;;;6.23;3.73;;;;;;;;;;4873605;29;20641;-69
2022/06/01 06:13:00;;;;;;;4.23;3.80;;;;;;;;;;4844732;29;20202;-69
2022/06/01 06:15:27;;;;;;;7.37;4.03;;;;;;;;;;4838562;29;20599;-69
2022/06/01 06:17:53;;;;;;;5.23;3.50;;;;;;;;;;4855545;29;20193;-70
2022/06/01 06:20:20;;;;;;;4.23;3.50;;;;;;;;;;4820664;29;20998;-69
2022/06/01 06:22:48;;;;;;;4.10;3.57;;;;;;;;;;4846910;29;20253;-70
2022/06/01 06:25:15;;;;;;;5.60;3.33;;;;;;;;;;4854726;29;20225;-70
2022/06/01 06:27:42;;;;;;;3.57;2.97;;;;;;;;;;4854246;29;20257;-69
2022/06/01 06:30:09;;;;;;;4.57;3.03;;;;;;;;;;4821464;29;20673;-70
2022/06/01 06:32:35;;;;;;;3.87;3.20;;;;;;;;;;4851809;29;20197;-70
2022/06/01 06:35:02;;;;;;;3.77;3.20;;;;;;;;;;4855348;29;20201;-70
2022/06/01 06:37:29;;;;;;;5.23;3.40;;;;;;;;;;4834153;29;20190;-70
2022/06/01 06:39:55;;;;;;;4.10;3.40;;;;;;;;;;4847495;29;20266;-70
2022/06/01 06:42:22;;;;;;;3.50;3.20;;;;;;;;;;4854641;29;20590;-70
2022/06/01 06:44:48;;;;;;;4.07;3.00;;;;;;;;;;4855305;29;20220;-70
2022/06/01 06:47:16;;;;;;;4.37;2.93;;;;;;;;;;4855010;29;20231;-70
2022/06/01 06:49:43;;;;;;;5.00;3.50;;;;;;;;;;4849536;29;20194;-70
2022/06/01 06:52:10;;;;;;;4.00;3.53;;;;;;;;;;4850050;29;20981;-71
2022/06/01 06:54:37;;;;;;;6.10;3.20;;;;;;;;;;4855091;29;20631;-71
2022/06/01 06:57:05;;;;;;;3.40;2.80;;;;;;;;;;4854972;29;20202;-70
2022/06/01 06:59:34;;;;;;;4.70;3.40;;;;;;;;;;4854852;29;20693;-72
2022/06/01 07:02:01;;;;;;;4.97;3.07;;;;;;;;;;4852839;29;20209;-71
2022/06/01 07:04:28;;;;;;;3.67;2.77;;;;;;;;;;4852287;29;20221;-71
2022/06/01 07:06:55;;;;;;;3.27;2.73;;;;;;;;;;4849749;29;20225;-71
2022/06/01 07:09:21;;;;;;;4.87;3.00;;;;;;;;;;4857388;29;20222;-72
2022/06/01 07:11:48;;;;;;;5.83;2.90;;;;;;;;;;4857999;29;20562;-71
2022/06/01 07:14:14;;;;;;;6.90;3.17;;;;;;;;;;4858501;29;20246;-71
2022/06/01 07:16:41;;;;;;;4.67;2.93;;;;;;;;;;4857965;29;20217;-72
2022/06/01 07:19:08;;;;;;;3.80;2.40;;;;;;;;;;4858634;29;20198;-72
2022/06/01 07:21:39;;;;;;;5.43;2.97;;;;;;;;;;4856973;29;20292;-72
2022/06/01 07:24:07;;;;;;;3.80;2.63;;;;;;;;;;4846951;29;20717;-71
2022/06/01 07:26:38;;;;;;;4.73;2.50;;;;;;;;;;4841322;29;20228;-73
2022/06/01 07:29:05;;;;;;;5.40;2.90;;;;;;;;;;4862604;29;20669;-72
2022/06/01 07:31:32;;;;;;;6.30;2.90;;;;;;;;;;4876425;29;20208;-72
2022/06/01 07:33:59;;;;;;;3.43;2.47;;;;;;;;;;4860369;29;20225;-72
2022/06/01 07:36:27;;;;;;;3.77;2.60;;;;;;;;;;4844699;29;20207;-73
2022/06/01 07:44:26;;;;;;;7.20;3.23;;;;;;;;;;4861707;29;20196;-73
2022/06/01 07:46:53;;;;;;;6.17;3.87;;;;;;;;;;4839296;29;20230;-71
2022/06/01 07:49:40;;;;;;;3.50;3.20;;;;;;;;;;4875956;29;20189;-71
2022/06/01 07:52:27;;;;;;;4.53;3.30;;;;;;;;;;4876009;29;20311;-73
2022/06/01 07:54:54;;;;;;;5.53;2.90;;;;;;;;;;4876362;29;20200;-72
2022/06/01 07:57:21;;;;;;;4.67;2.90;;;;;;;;;;4859610;29;21000;-72
2022/06/01 07:59:48;;;;;;;3.40;2.80;;;;;;;;;;4859590;29;20530;-72
2022/06/01 08:02:15;;;;;;;4.30;3.00;;;;;;;;;;4872775;29;20586;-72
2022/06/01 08:04:42;;;;;;;3.60;3.30;;;;;;;;;;4875789;29;20664;-72
2022/06/01 08:07:10;;;;;;;4.83;3.50;;;;;;;;;;4876328;29;20584;-72
2022/06/01 08:09:37;;;;;;;3.90;3.23;;;;;;;;;;4859329;29;20228;-72
2022/06/01 08:14:49;;;;;;;6.27;3.10;;;;;;;;;;4857329;29;20208;-73
2022/06/01 08:17:16;;;;;;;3.47;3.10;;;;;;;;;;4841839;29;20289;-72
2022/06/01 08:19:46;;;;;;;4.30;3.60;;;;;;;;;;4850998;29;20681;-72
2022/06/01 08:22:14;;;;;;;5.57;3.60;;;;;;;;;;4857155;29;20662;-72
2022/06/01 08:24:41;;;;;;;6.17;3.43;;;;;;;;;;4856293;29;20201;-73
2022/06/01 08:27:09;;;;;;;6.27;3.60;;;;;;;;;;4838900;29;20221;-72
2022/06/01 08:29:36;;;;;;;9.30;4.13;;;;;;;;;;4857334;29;20208;-71
2022/06/01 08:32:20;;;;;;;6.63;3.90;;;;;;;;;;4843050;29;20185;-72
2022/06/01 08:34:46;;;;;;;6.70;3.60;;;;;;;;;;4857490;29;20269;-72
2022/06/01 08:37:13;;;;;;;7.60;3.90;;;;;;;;;;4829892;29;20232;-72
2022/06/01 08:39:39;;;;;;;5.27;4.33;;;;;;;;;;4859270;29;20197;-72
2022/06/01 08:42:06;;;;;;;7.80;3.70;;;;;;;;;;4874121;29;20260;-68
2022/06/01 08:44:35;;;;;;;8.30;4.27;;;;;;;;;;4860616;29;20201;-73
2022/06/01 08:47:06;;;;;;;6.67;3.70;;;;;;;;;;4836193;29;20709;-73
2022/06/01 08:49:34;;;;;;;6.97;4.00;;;;;;;;;;4847710;29;20364;-72
2022/06/01 08:52:00;;;;;;;7.50;4.23;;;;;;;;;;4835602;29;20245;-73
2022/06/01 08:54:28;;;;;;;5.87;3.70;;;;;;;;;;4842414;29;20688;-72
2022/06/01 08:56:56;;;;;;;9.43;4.53;;;;;;;;;;4857826;29;20561;-72
2022/06/01 08:59:41;;;;;;;10.00;4.87;;;;;;;;;;4838277;29;20557;-72
2022/06/01 09:02:12;;;;;;;6.90;4.73;;;;;;;;;;4854863;29;20567;-70
2022/06/01 09:04:44;;;;;;;9.57;4.40;;;;;;;;;;4852531;29;20209;-71
2022/06/01 09:07:10;;;;;;;8.13;4.13;;;;;;;;;;4840445;29;20238;-73
2022/06/01 09:09:45;;;;;;;6.17;3.97;;;;;;;;;;4865355;29;20253;-72
2022/06/01 09:12:12;;;;;;;6.63;4.20;;;;;;;;;;4842427;29;20577;-74
2022/06/01 09:14:39;;;;;;;6.17;3.93;;;;;;;;;;4855907;29;20206;-73
2022/06/01 09:17:06;;;;;;;6.20;4.07;;;;;;;;;;4841477;29;20561;-73
2022/06/01 09:22:42;;;;;;;5.37;3.83;;;;;;;;;;4856330;29;20209;-74
2022/06/01 09:25:17;;;;;;;7.87;4.50;;;;;;;;;;4842320;29;20739;-74
2022/06/01 09:27:44;;;;;;;5.80;3.80;;;;;;;;;;4854152;29;20249;-75
2022/06/01 09:30:25;;;;;;;6.93;4.13;;;;;;;;;;4839798;29;20245;-74
2022/06/01 09:33:02;;;;;;;7.20;3.97;;;;;;;;;;4811390;29;20201;-75
2022/06/01 09:35:33;;;;;;;6.07;3.90;;;;;;;;;;4840686;29;20208;-76
2022/06/01 09:38:04;;;;;;;7.73;3.93;;;;;;;;;;4838288;29;20213;-75
2022/06/01 09:40:33;;;;;;;6.63;3.73;;;;;;;;;;4839359;29;20237;-74
2022/06/01 09:43:00;;;;;;;6.20;3.67;;;;;;;;;;4842445;29;20238;-73
2022/06/01 09:45:28;;;;;;;5.97;4.10;;;;;;;;;;4835582;29;20244;-73
2022/06/01 09:48:10;;;;;;;4.90;4.40;;;;;;;;;;4816437;29;20337;-75
2022/06/01 09:50:41;;;;;;;6.83;3.80;;;;;;;;;;4839623;29;20687;-77
2022/06/01 09:53:18;;;;;;;5.37;3.50;;;;;;;;;;4841487;29;20265;-75
2022/06/01 09:55:50;;;;;;;5.33;3.60;;;;;;;;;;4839407;29;20213;-74
2022/06/01 10:07:20;;;;;;;7.80;3.93;;;;;;;;;;4840062;29;20229;-78
2022/06/01 10:10:05;;;;;;;7.03;4.20;;;;;;;;;;4841158;29;20216;-72
2022/06/01 10:12:32;;;;;;;5.83;4.20;;;;;;;;;;4838834;29;20205;-73
2022/06/01 10:15:03;;;;;;;7.90;3.80;;;;;;;;;;4857620;29;20265;-72
2022/06/01 10:17:37;;;;;;;6.70;3.87;;;;;;;;;;4837345;29;20201;-73
2022/06/01 10:20:29;;;;;;;6.93;4.30;;;;;;;;;;4844342;29;20200;-70
2022/06/01 10:23:10;;;;;;;8.47;3.90;;;;;;;;;;4840582;29;20299;-73
2022/06/01 10:25:39;;;;;;;7.73;4.17;;;;;;;;;;4837982;29;20209;-71
2022/06/01 10:28:06;;;;;;;4.23;3.83;;;;;;;;;;4859360;29;20320;-74
2022/06/01 10:30:56;;;;;;;4.13;3.43;;;;;;;;;;4822885;29;20200;-71
2022/06/01 10:33:24;;;;;;;5.93;3.90;;;;;;;;;;4842802;29;20335;-71
2022/06/01 10:35:59;;;;;;;5.13;3.90;;;;;;;;;;4837826;29;20201;-71
2022/06/01 10:38:29;;;;;;;5.60;3.77;;;;;;;;;;4853059;29;20280;-72
2022/06/01 10:40:56;;;;;;;5.87;3.50;;;;;;;;;;4838065;29;20237;-71
2022/06/01 10:43:27;;;;;;;5.37;3.60;;;;;;;;;;4857961;29;20717;-72
2022/06/01 10:46:23;;;;;;;5.37;3.60;;;;;;;;;;4844699;29;20209;-68
2022/06/01 10:49:06;;;;;;;6.57;3.90;;;;;;;;;;4816307;29;20223;-72
2022/06/01 10:51:34;;;;;;;4.43;3.20;;;;;;;;;;4841580;29;20276;-71
2022/06/01 10:54:00;;;;;;;4.80;3.70;;;;;;;;;;4838639;29;20933;-71
2022/06/01 10:56:27;;;;;;;6.27;3.37;;;;;;;;;;4860823;29;20194;-71
2022/06/01 10:58:55;;;;;;;4.67;3.13;;;;;;;;;;4840896;29;20201;-68
2022/06/01 11:01:39;;;;;;;3.63;3.23;;;;;;;;;;4858658;29;20863;-71
2022/06/01 11:04:11;;;;;;;5.17;3.23;;;;;;;;;;4862811;29;20292;-71
2022/06/01 11:06:44;;;;;;;4.93;3.40;;;;;;;;;;4857204;29;20232;-72
2022/06/01 11:09:13;;;;;;;4.23;3.43;;;;;;;;;;4858091;29;20198;-69
2022/06/01 11:12:09;;;;;;;5.50;3.40;;;;;;;;;;4861345;29;20216;-71
2022/06/01 11:14:54;;;;;;;6.57;3.40;;;;;;;;;;4853499;29;20811;-72
2022/06/01 11:17:25;;;;;;;6.33;3.53;;;;;;;;;;4866009;29;20284;-71
2022/06/01 11:19:56;;;;;;;5.00;3.87;;;;;;;;;;4857455;29;20292;-72
2022/06/01 11:22:35;;;;;;;4.10;3.30;;;;;;;;;;4838894;29;20203;-73
2022/06/01 11:25:23;;;;;;;3.60;3.30;;;;;;;;;;4847465;29;20565;-72
2022/06/01 11:28:14;;;;;;;4.70;3.10;;;;;;;;;;4854513;29;20224;-72
2022/06/01 11:30:47;;;;;;;4.50;3.17;;;;;;;;;;4863384;29;20199;-72
2022/06/01 11:33:28;;;;;;;4.00;3.63;;;;;;;;;;4854899;29;20702;-74
2022/06/01 11:36:03;;;;;;;5.53;3.43;;;;;;;;;;4840727;29;20239;-73
2022/06/01 11:38:32;;;;;;;6.00;3.33;;;;;;;;;;4822442;29;20327;-73
2022/06/01 11:41:03;;;;;;;4.43;3.43;;;;;;;;;;4848822;29;20237;-74
2022/06/01 11:43:34;;;;;;;4.47;3.30;;;;;;;;;;4864193;29;20214;-75
2022/06/01 11:46:09;;;;;;;6.30;3.70;;;;;;;;;;4846352;29;20201;-75
2022/06/01 11:48:36;;;;;;;5.13;3.30;;;;;;;;;;4840335;29;20309;-75
2022/06/01 11:51:22;;;;;;;4.50;3.23;;;;;;;;;;4845107;29;20209;-75
2022/06/01 11:53:59;;;;;;;4.30;3.57;;;;;;;;;;4861774;29;20308;-76
2022/06/01 11:56:34;;;;;;;3.57;3.20;;;;;;;;;;4838776;29;20221;-75
2022/06/01 11:59:04;;;;;;;3.77;3.27;;;;;;;;;;4840331;29;20216;-76
2022/06/01 12:01:38;;;;;;;3.13;2.77;;;;;;;;;;4857989;29;20691;-72
2022/06/01 12:04:24;;;;;;;7.90;5.13;;;;;;;;;;4854757;29;20285;-77
2022/06/01 12:06:54;;;;;;;5.43;4.33;;;;;;;;;;4845571;29;20227;-79
2022/06/01 12:09:44;;;;;;;4.73;3.40;;;;;;;;;;4844378;29;20847;-74
2022/06/01 12:12:25;;;;;;;4.50;3.30;;;;;;;;;;4848629;29;20288;-76
2022/06/01 12:14:59;;;;;;;3.27;2.77;;;;;;;;;;4840415;29;20236;-75
2022/06/01 12:17:27;;;;;;;7.40;3.03;;;;;;;;;;4841759;29;20951;-73
2022/06/01 12:20:10;;;;;;;4.40;3.80;;;;;;;;;;4841574;29;20197;-78
2022/06/01 12:28:45;;;;;;;5.77;5.07;;;;;;;;;;4856203;29;20228;-70
2022/06/01 12:31:13;;;;;;;6.80;5.60;;;;;;;;;;4858164;29;20308;-66
2022/06/01 12:34:03;;;;;;;11.40;6.77;;;;;;;;;;4839621;29;20232;-69
2022/06/01 12:36:48;;;;;;;18.03;7.50;;;;;;;;;;4855414;29;21838;-64
2022/06/01 12:39:19;;;;;;;14.27;7.03;;;;;;;;;;4856921;29;20781;-63
2022/06/01 12:41:48;;;;;;;7.97;6.90;;;;;;;;;;4842661;29;20241;-65
2022/06/01 12:44:15;;;;;;;7.17;6.47;;;;;;;;;;4858971;29;20313;-66
2022/06/01 12:46:45;;;;;;;8.70;5.63;;;;;;;;;;4835247;29;20201;-66
2022/06/01 12:49:20;;;;;;;7.17;4.93;;;;;;;;;;4850490;29;20201;-66
2022/06/01 12:51:49;;;;;;;5.40;4.90;;;;;;;;;;4849583;29;20202;-67
2022/06/01 12:54:31;;;;;;;5.83;5.20;;;;;;;;;;4842094;29;20202;-66
2022/06/01 12:56:59;;;;;;;7.00;5.37;;;;;;;;;;4835468;29;20606;-67
2022/06/01 12:59:33;;;;;;;5.70;4.80;;;;;;;;;;4837999;29;20390;-64
2022/06/01 13:02:01;;;;;;;6.07;4.67;;;;;;;;;;4854038;29;20205;-65
2022/06/01 13:04:34;;;;;;;5.53;4.50;;;;;;;;;;4851642;29;20198;-65
2022/06/01 13:07:00;;;;;;;8.07;4.53;;;;;;;;;;4853985;29;20225;-65
2022/06/01 13:09:28;;;;;;;5.93;5.07;;;;;;;;;;4856397;29;20221;-64
2022/06/01 13:12:02;;;;;;;6.13;5.50;;;;;;;;;;4851466;29;20221;-65
2022/06/01 13:14:30;;;;;;;5.93;5.33;;;;;;;;;;4854004;29;20204;-65
2022/06/01 13:17:00;;;;;;;5.97;4.33;;;;;;;;;;4850352;29;20262;-67
2022/06/01 13:19:30;;;;;;;4.53;4.13;;;;;;;;;;4838775;29;20260;-65
2022/06/01 13:22:03;;;;;;;4.33;3.17;;;;;;;;;;4839775;29;20212;-64
2022/06/01 13:24:32;;;;;;;4.23;3.30;;;;;;;;;;4836859;29;20186;-65
2022/06/01 13:26:59;;;;;;;4.77;2.50;;;;;;;;;;4872819;29;20212;-64
2022/06/01 13:29:25;;;;;;;3.17;2.00;;;;;;;;;;4874615;29;20216;-64
2022/06/01 13:31:56;;;;;;;2.50;1.97;;;;;;;;;;4874542;29;20211;-64
2022/06/01 13:34:24;;;;;;;3.17;2.57;;;;;;;;;;4859411;29;20588;-65
2022/06/01 13:36:51;;;;;;;3.17;2.10;;;;;;;;;;4824429;29;20206;-63
2022/06/01 13:39:25;;;;;;;1.90;1.80;;;;;;;;;;4858285;29;20350;-64
2022/06/01 13:41:53;;;;;;;1.57;1.47;;;;;;;;;;4872338;29;20751;-63
2022/06/01 13:44:39;;;;;;;2.43;1.67;;;;;;;;;;4868908;29;20209;-64
2022/06/01 13:47:05;;;;;;;1.50;1.40;;;;;;;;;;4865493;29;20212;-65
2022/06/01 13:49:42;;;;;;;2.00;1.70;;;;;;;;;;4859271;29;20193;-65
2022/06/01 13:52:08;;;;;;;8.03;5.73;;;;;;;;;;4874821;29;20210;-65
2022/06/01 13:54:36;;;;;;;7.23;4.70;;;;;;;;;;4873092;29;20288;-64
2022/06/01 13:57:03;;;;;;;31.73;20.63;;;;;;;;;;4874239;29;20677;-65
2022/06/01 13:59:34;;;;;;;10.87;7.40;;;;;;;;;;4874111;29;20193;-64
2022/06/01 14:02:03;;;;;;;5.63;3.53;;;;;;;;;;4862627;29;20210;-64
2022/06/01 14:04:29;;;;;;;3.50;2.00;;;;;;;;;;4871747;29;20561;-65
2022/06/01 14:07:00;;;;;;;1.97;1.70;;;;;;;;;;4874667;29;20197;-65
2022/06/01 14:09:28;;;;;;;2.43;1.60;;;;;;;;;;4857756;29;20201;-64
2022/06/01 14:11:55;;;;;;;2.00;1.80;;;;;;;;;;4869445;29;20208;-64
2022/06/01 14:14:25;;;;;;;2.20;1.80;;;;;;;;;;4854313;29;20316;-65
2022/06/01 14:16:53;;;;;;;2.90;2.07;;;;;;;;;;4856607;29;20189;-65
2022/06/01 14:19:19;;;;;;;1.30;1.20;;;;;;;;;;4859912;29;20204;-65
2022/06/01 14:21:51;;;;;;;1.60;1.50;;;;;;;;;;4858428;29;20725;-65
2022/06/01 14:24:18;;;;;;;5.63;3.97;;;;;;;;;;4861728;29;20208;-65
2022/06/01 14:29:31;;;;;;;3.67;1.90;;;;;;;;;;4861525;29;20197;-64
2022/06/01 14:32:00;;;;;;;3.70;1.90;;;;;;;;;;4861808;29;20569;-65
2022/06/01 14:34:28;;;;;;;15.10;9.73;;;;;;;;;;4856134;29;20201;-65
2022/06/01 14:36:59;;;;;;;14.17;9.77;;;;;;;;;;4862053;29;20198;-65
2022/06/01 14:39:25;;;;;;;6.80;3.90;;;;;;;;;;4861738;29;20198;-64
2022/06/01 14:41:56;;;;;;;2.30;1.80;;;;;;;;;;4861295;29;20229;-68
2022/06/01 14:44:24;;;;;;;4.47;2.43;;;;;;;;;;4861615;29;20192;-64
2022/06/01 14:46:51;;;;;;;74.57;40.07;;;;;;;;;;4845538;29;20303;-64
2022/06/01 14:49:19;;;;;;;5.03;3.20;;;;;;;;;;4861589;29;20249;-65
2022/06/01 14:51:52;;;;;;;3.40;2.20;;;;;;;;;;4852644;29;20697;-65
2022/06/01 14:54:19;;;;;;;9.13;6.80;;;;;;;;;;4859771;29;20197;-65
2022/06/01 14:56:46;;;;;;;6.60;5.03;;;;;;;;;;4861079;29;20257;-65
2022/06/01 14:59:12;;;;;;;11.60;7.90;;;;;;;;;;4861465;29;20620;-65
2022/06/01 15:01:40;;;;;;;20.73;13.10;;;;;;;;;;4858872;29;20589;-66
2022/06/01 15:04:08;;;;;;;2.07;1.87;;;;;;;;;;4842184;29;20307;-64
2022/06/01 15:06:35;;;;;;;2.70;2.40;;;;;;;;;;4863391;29;20253;-66
2022/06/01 15:09:02;;;;;;;2.87;2.20;;;;;;;;;;4845136;29;20239;-64
2022/06/01 15:11:29;;;;;;;2.40;1.93;;;;;;;;;;4860944;29;20190;-64
2022/06/01 15:13:56;;;;;;;32.80;19.30;;;;;;;;;;4861266;29;20734;-64
2022/06/01 15:16:23;;;;;;;2.70;1.90;;;;;;;;;;4860289;29;20213;-64
2022/06/01 15:18:54;;;;;;;2.83;2.13;;;;;;;;;;4848856;29;20197;-64
2022/06/01 15:21:22;;;;;;;1.90;1.80;;;;;;;;;;4844299;29;20614;-64
2022/06/01 15:23:49;;;;;;;3.77;2.87;;;;;;;;;;4860978;29;20202;-65
2022/06/01 15:26:16;;;;;;;2.67;1.33;;;;;;;;;;4840456;29;20603;-63
2022/06/01 15:28:42;;;;;;;2.10;1.40;;;;;;;;;;4851226;29;20244;-64
2022/06/01 15:39:32;;;;;;;2.03;1.70;;;;;;;;;;4843619;29;20639;-64
2022/06/01 15:42:12;;;;;;;2.50;1.70;;;;;;;;;;4851626;29;20229;-64